Time;durP1;ratioP1;P1;durP2;ratioP2;P2;SDS_P1;SDS_P2;PMS_P1;PMS_P2;Temp;Humidity;BMP_temperature;BMP_pressure;BME280_temperature;BME280_humidity;BME280_pressure;Samples;Min_cycle;Max_cycle;Signal;HPM_P1;HPM_P2
2024/02/05 00:02:07;;;;;;;24.05;5.57;;;;;;;10.18;100.00;101959.44;5084242;28;20389;-77
2024/02/05 00:04:32;;;;;;;26.17;5.93;;;;;;;10.18;100.00;101977.03;5102237;28;20032;-77
2024/02/05 00:06:57;;;;;;;23.08;5.35;;;;;;;10.17;100.00;101973.50;5085466;28;20051;-77
2024/02/05 00:09:23;;;;;;;25.10;5.50;;;;;;;10.25;100.00;101976.31;5100967;28;20072;-77
2024/02/05 00:11:48;;;;;;;24.67;5.78;;;;;;;10.22;100.00;101973.63;5104425;28;20035;-77
2024/02/05 00:14:14;;;;;;;24.08;5.47;;;;;;;10.17;100.00;101976.16;5083076;28;20386;-78
2024/02/05 00:16:39;;;;;;;24.27;5.63;;;;;;;10.14;100.00;101964.63;5103327;28;20020;-77
2024/02/05 00:19:05;;;;;;;24.90;5.28;;;;;;;10.18;100.00;101971.75;5102495;28;20031;-77
2024/02/05 00:21:30;;;;;;;22.50;5.65;;;;;;;10.14;100.00;101972.56;5104639;28;20024;-77
2024/02/05 00:23:56;;;;;;;25.55;5.28;;;;;;;10.09;100.00;101972.41;5107848;28;20486;-77
2024/02/05 00:26:21;;;;;;;24.88;6.40;;;;;;;10.01;100.00;101971.34;5105107;28;20084;-77
2024/02/05 00:28:47;;;;;;;24.55;5.57;;;;;;;9.99;100.00;101971.31;5108238;28;20032;-77
2024/02/05 00:31:12;;;;;;;25.58;5.72;;;;;;;9.90;100.00;101955.22;5105361;28;20028;-77
2024/02/05 00:33:37;;;;;;;25.90;5.60;;;;;;;9.82;100.00;101978.81;5107094;28;20165;-77
2024/02/05 00:36:03;;;;;;;25.70;6.03;;;;;;;9.76;100.00;101976.03;5088282;28;20024;-77
2024/02/05 00:38:28;;;;;;;26.05;5.70;;;;;;;9.76;100.00;101968.09;5105560;28;20115;-77
2024/02/05 00:40:54;;;;;;;25.48;5.90;;;;;;;9.68;100.00;101978.44;5108042;28;20485;-77
2024/02/05 00:43:19;;;;;;;25.33;5.85;;;;;;;9.59;100.00;101972.94;5104825;28;20081;-77
2024/02/05 00:45:45;;;;;;;26.42;5.68;;;;;;;9.60;100.00;101972.09;5089602;28;20031;-77
2024/02/05 00:48:10;;;;;;;25.33;5.72;;;;;;;9.56;100.00;101971.09;5087210;28;20039;-77
2024/02/05 00:50:37;;;;;;;26.17;5.90;;;;;;;9.68;100.00;101964.38;5106436;28;20462;-78
2024/02/05 00:53:04;;;;;;;26.10;6.18;;;;;;;9.48;100.00;101983.22;5088416;28;20035;-77
2024/02/05 00:55:30;;;;;;;26.88;6.57;;;;;;;9.40;100.00;101969.78;5087380;28;20462;-77
2024/02/05 00:57:55;;;;;;;27.15;6.43;;;;;;;9.41;100.00;101976.88;5107244;28;20020;-77
2024/02/05 01:00:20;;;;;;;25.60;6.30;;;;;;;9.38;100.00;101986.47;5086413;28;20024;-78
2024/02/05 01:02:46;;;;;;;27.85;6.45;;;;;;;9.33;100.00;101994.22;5107502;28;20028;-77
2024/02/05 01:05:11;;;;;;;26.35;6.13;;;;;;;9.30;100.00;101983.59;5104784;28;20043;-77
2024/02/05 01:07:36;;;;;;;26.23;6.78;;;;;;;9.24;100.00;101984.31;5106275;28;20077;-77
2024/02/05 01:10:02;;;;;;;26.35;7.22;;;;;;;9.23;100.00;101979.00;5106056;28;20042;-77
2024/02/05 01:12:27;;;;;;;27.42;7.10;;;;;;;9.20;100.00;101987.75;5086532;28;20024;-77
2024/02/05 01:14:53;;;;;;;28.33;6.63;;;;;;;9.16;100.00;101992.84;5107619;28;20031;-77
2024/02/05 01:17:18;;;;;;;27.05;6.85;;;;;;;9.14;100.00;101992.81;5103943;28;20028;-77
2024/02/05 01:19:44;;;;;;;27.27;7.43;;;;;;;9.15;100.00;101999.00;5106958;28;20023;-77
2024/02/05 01:22:09;;;;;;;30.88;7.38;;;;;;;9.14;100.00;101981.38;5104914;28;20038;-77
2024/02/05 01:24:34;;;;;;;26.52;7.30;;;;;;;9.10;100.00;101984.78;5105690;28;20031;-77
2024/02/05 01:27:00;;;;;;;28.00;7.35;;;;;;;9.12;100.00;101985.75;5105982;28;20124;-77
2024/02/05 01:29:25;;;;;;;29.48;7.45;;;;;;;9.05;100.00;101977.63;5104175;28;20036;-77
2024/02/05 01:31:51;;;;;;;27.30;7.05;;;;;;;9.06;100.00;101978.53;5106596;28;20047;-77
2024/02/05 01:34:16;;;;;;;29.17;7.65;;;;;;;9.04;100.00;101982.84;5103699;28;20115;-77
2024/02/05 01:36:41;;;;;;;28.08;7.60;;;;;;;9.07;100.00;101981.22;5078892;28;20684;-77
2024/02/05 01:39:07;;;;;;;30.63;7.85;;;;;;;9.10;100.00;101979.50;5104807;28;20378;-77
2024/02/05 01:41:32;;;;;;;26.98;7.20;;;;;;;9.18;100.00;101978.88;5104991;28;20107;-77
2024/02/05 01:43:58;;;;;;;26.92;7.60;;;;;;;9.17;100.00;101976.19;5106082;28;20541;-77
2024/02/05 01:46:25;;;;;;;27.63;7.13;;;;;;;9.21;100.00;101967.53;5103602;28;20020;-77
2024/02/05 01:48:56;;;;;;;26.33;6.95;;;;;;;9.19;100.00;101969.22;5106808;28;20027;-77
2024/02/05 01:51:23;;;;;;;26.95;7.63;;;;;;;9.20;100.00;101981.56;5103300;28;20028;-77
2024/02/05 01:53:52;;;;;;;27.13;7.57;;;;;;;9.18;100.00;101978.00;5103132;28;20024;-77
2024/02/05 01:56:25;;;;;;;27.45;7.63;;;;;;;9.19;100.00;101966.59;5103300;28;20024;-77
2024/02/05 01:58:51;;;;;;;29.23;8.07;;;;;;;9.23;100.00;101957.88;5103284;28;20111;-77
2024/02/05 02:01:17;;;;;;;28.80;8.43;;;;;;;9.20;100.00;101956.09;5106412;28;20110;-78
2024/02/05 02:03:47;;;;;;;27.10;7.82;;;;;;;9.19;100.00;101967.47;5103538;28;20435;-77
2024/02/05 02:06:13;;;;;;;29.60;8.70;;;;;;;9.21;100.00;101957.84;5105636;28;20047;-78
2024/02/05 02:08:38;;;;;;;27.98;8.32;;;;;;;9.23;100.00;101961.44;5103922;28;20042;-78
2024/02/05 02:11:04;;;;;;;29.48;8.40;;;;;;;9.28;100.00;101951.00;5086332;28;20035;-78
2024/02/05 02:13:30;;;;;;;29.88;8.98;;;;;;;9.28;100.00;101952.75;5087315;28;20032;-78
2024/02/05 02:16:02;;;;;;;29.20;8.23;;;;;;;9.25;100.00;101953.56;5103432;28;20127;-78
2024/02/05 02:18:32;;;;;;;27.63;8.60;;;;;;;9.23;100.00;101956.16;5105584;28;20062;-78
2024/02/05 02:21:00;;;;;;;28.65;8.82;;;;;;;9.26;100.00;101957.97;5103444;28;20032;-78
2024/02/05 02:23:33;;;;;;;27.35;8.40;;;;;;;9.29;100.00;101952.81;5105800;28;20057;-78
2024/02/05 02:25:58;;;;;;;;;;;;;;;9.37;100.00;101940.69;5085563;28;20492;-78
2024/02/05 02:28:24;;;;;;;29.00;8.35;;;;;;;9.28;100.00;101953.66;5105752;28;20061;-78
2024/02/05 02:30:51;;;;;;;27.50;8.43;;;;;;;9.20;100.00;101949.88;5102671;28;20035;-78
2024/02/05 02:33:25;;;;;;;31.60;9.38;;;;;;;9.22;100.00;101951.72;5087716;28;20153;-78
2024/02/05 02:35:51;;;;;;;29.10;9.20;;;;;;;9.24;100.00;101936.81;5102389;28;20020;-78
2024/02/05 02:38:35;;;;;;;29.98;9.38;;;;;;;9.28;100.00;101952.75;5105685;28;20031;-78
2024/02/05 02:41:04;;;;;;;31.08;9.02;;;;;;;9.25;100.00;101959.72;5103573;28;20217;-78
2024/02/05 02:43:34;;;;;;;30.45;9.35;;;;;;;9.23;100.00;101942.06;5104766;28;20102;-78
2024/02/05 02:46:01;;;;;;;31.08;9.55;;;;;;;9.24;100.00;101941.22;5103091;28;20036;-78
2024/02/05 02:48:28;;;;;;;29.25;9.25;;;;;;;9.22;100.00;101958.75;5105421;28;20386;-78
2024/02/05 02:50:53;;;;;;;30.63;9.85;;;;;;;9.18;100.00;101959.53;5101992;28;20028;-78
2024/02/05 02:53:18;;;;;;;33.10;9.70;;;;;;;9.14;100.00;101962.91;5105638;28;20031;-78
2024/02/05 02:55:44;;;;;;;33.38;10.48;;;;;;;9.15;100.00;101959.44;5084639;28;20032;-78
2024/02/05 02:58:09;;;;;;;32.45;9.98;;;;;;;9.12;100.00;101954.09;5104158;28;20144;-77
2024/02/05 03:00:35;;;;;;;30.05;10.50;;;;;;;9.19;100.00;101956.94;5103733;28;20109;-77
2024/02/05 03:03:01;;;;;;;31.40;11.07;;;;;;;9.12;100.00;101959.34;5103158;28;20101;-77
2024/02/05 03:05:26;;;;;;;31.75;10.50;;;;;;;9.15;100.00;101959.44;5104710;28;20052;-77
2024/02/05 03:07:52;;;;;;;32.65;11.20;;;;;;;9.15;100.00;101962.09;5083542;28;20106;-77
2024/02/05 03:10:17;;;;;;;30.67;11.10;;;;;;;9.10;100.00;101954.03;5105306;28;20438;-77
2024/02/05 03:12:42;;;;;;;34.38;11.43;;;;;;;9.11;100.00;101958.44;5084195;28;20642;-77
2024/02/05 03:15:08;;;;;;;32.00;11.10;;;;;;;9.11;100.00;101957.56;5103669;28;20056;-77
2024/02/05 03:17:33;;;;;;;30.58;10.77;;;;;;;9.18;100.00;101946.34;5103899;28;20115;-77
2024/02/05 03:19:59;;;;;;;30.08;11.20;;;;;;;9.16;100.00;101958.56;5102093;28;20032;-77
2024/02/05 03:22:24;;;;;;;28.48;10.88;;;;;;;9.14;100.00;101957.66;5105273;28;20028;-77
2024/02/05 03:24:49;;;;;;;32.35;11.85;;;;;;;9.15;100.00;101948.88;5101405;28;20031;-77
2024/02/05 03:27:15;;;;;;;35.92;12.95;;;;;;;9.06;100.00;101944.25;5104398;28;20031;-78
2024/02/05 03:29:41;;;;;;;31.92;12.50;;;;;;;9.11;100.00;101945.25;5102615;28;20019;-77
2024/02/05 03:32:07;;;;;;;29.52;11.02;;;;;;;9.16;100.00;101954.22;5103177;28;20032;-77
2024/02/05 03:34:32;;;;;;;33.80;12.45;;;;;;;9.14;100.00;101953.25;5085360;28;20535;-77
2024/02/05 03:36:58;;;;;;;31.27;11.30;;;;;;;9.10;100.00;101947.84;5102060;28;20032;-77
2024/02/05 03:39:26;;;;;;;29.50;11.30;;;;;;;9.11;100.00;101950.53;5104684;28;20103;-77
2024/02/05 03:41:51;;;;;;;30.35;11.98;;;;;;;9.11;100.00;101941.72;5101198;28;20118;-77
2024/02/05 03:44:16;;;;;;;32.03;11.52;;;;;;;9.10;100.00;101932.03;5086472;28;20130;-77
2024/02/05 03:46:42;;;;;;;29.30;11.85;;;;;;;9.11;100.00;101942.63;5102043;28;20157;-77
2024/02/05 03:49:07;;;;;;;28.77;12.02;;;;;;;9.13;100.00;101938.28;5102794;28;20032;-77
2024/02/05 03:51:33;;;;;;;30.77;12.02;;;;;;;9.05;100.00;101932.78;5103652;28;20034;-77
2024/02/05 03:54:01;;;;;;;33.65;13.68;;;;;;;9.04;100.00;101944.22;5101780;28;20475;-77
2024/02/05 03:56:26;;;;;;;33.60;12.82;;;;;;;9.07;100.00;101940.75;5103713;28;20382;-77
2024/02/05 03:58:52;;;;;;;29.65;12.15;;;;;;;9.07;100.00;101946.94;5101151;28;20024;-77
2024/02/05 04:01:17;;;;;;;32.90;12.90;;;;;;;9.06;100.00;101931.94;5104274;28;20035;-77
2024/02/05 04:03:43;;;;;;;35.38;13.02;;;;;;;9.04;100.00;101949.47;5083600;28;20023;-77
2024/02/05 04:06:08;;;;;;;35.85;13.15;;;;;;;9.06;100.00;101942.50;5084571;28;20048;-77
2024/02/05 04:08:33;;;;;;;32.33;13.25;;;;;;;9.04;100.00;101954.75;5103057;28;20042;-77
2024/02/05 04:10:59;;;;;;;31.55;12.95;;;;;;;9.05;100.00;101964.44;5101921;28;20043;-77
2024/02/05 04:13:25;;;;;;;32.63;12.88;;;;;;;9.06;100.00;101946.88;5104388;28;20027;-77
2024/02/05 04:15:51;;;;;;;31.17;12.30;;;;;;;9.03;100.00;101944.16;5082617;28;20025;-77
2024/02/05 04:18:16;;;;;;;32.10;11.73;;;;;;;9.03;100.00;101947.69;5086199;28;20386;-77
2024/02/05 04:20:42;;;;;;;31.90;12.73;;;;;;;9.04;100.00;101949.47;5076615;28;20031;-77
2024/02/05 04:23:09;;;;;;;29.70;11.80;;;;;;;9.03;100.00;101950.31;5102434;28;20034;-77
2024/02/05 04:25:34;;;;;;;32.67;11.98;;;;;;;8.96;100.00;101953.63;5084199;28;20078;-77
2024/02/05 04:28:02;;;;;;;32.03;12.43;;;;;;;9.01;100.00;101957.31;5103363;28;20069;-77
2024/02/05 04:30:29;;;;;;;30.50;11.85;;;;;;;8.99;100.00;101956.34;5101130;28;20394;-77
2024/02/05 04:32:57;;;;;;;32.17;12.32;;;;;;;8.98;100.00;101954.56;5104802;28;20028;-77
2024/02/05 04:35:22;;;;;;;29.80;10.88;;;;;;;8.98;100.00;101956.31;5082417;28;20020;-77
2024/02/05 04:37:48;;;;;;;31.88;11.45;;;;;;;8.95;100.00;101953.59;5104271;28;20484;-77
2024/02/05 04:40:13;;;;;;;29.67;11.40;;;;;;;8.96;100.00;101956.28;5083452;28;20032;-77
2024/02/05 04:42:39;;;;;;;30.25;11.55;;;;;;;8.91;100.00;101952.59;5102621;28;20035;-77
2024/02/05 04:45:05;;;;;;;32.38;12.20;;;;;;;8.89;100.00;101967.50;5102674;28;20020;-77
2024/02/05 04:47:31;;;;;;;28.73;11.65;;;;;;;8.88;100.00;101952.50;5083425;28;20031;-77
2024/02/05 04:49:56;;;;;;;33.63;12.02;;;;;;;8.93;100.00;101948.28;5103679;28;20031;-77
2024/02/05 04:52:21;;;;;;;31.55;12.13;;;;;;;8.94;100.00;101952.72;5100452;28;20471;-75
2024/02/05 04:54:47;;;;;;;31.55;11.35;;;;;;;8.90;100.00;101941.16;5104040;28;20058;-75
2024/02/05 04:57:12;;;;;;;30.73;12.57;;;;;;;8.86;100.00;101944.56;5083611;28;20113;-75
2024/02/05 04:59:37;;;;;;;31.17;12.75;;;;;;;8.85;100.00;101937.53;5102731;28;20028;-75
2024/02/05 05:02:03;;;;;;;35.15;12.70;;;;;;;8.85;100.00;101933.97;5102989;28;20026;-75
2024/02/05 05:04:29;;;;;;;31.27;13.07;;;;;;;8.85;100.00;101926.06;5100898;28;20059;-75
2024/02/05 05:06:54;;;;;;;32.90;12.75;;;;;;;8.85;100.00;101928.69;5085924;28;20043;-75
2024/02/05 05:09:20;;;;;;;31.13;13.25;;;;;;;8.90;100.00;101924.47;5089590;28;20424;-78
2024/02/05 05:11:45;;;;;;;33.60;14.18;;;;;;;8.85;100.00;101921.69;5086497;28;20081;-78
2024/02/05 05:14:10;;;;;;;34.83;13.50;;;;;;;8.83;100.00;101933.94;5106456;28;20028;-78
2024/02/05 05:16:36;;;;;;;31.65;14.60;;;;;;;8.85;100.00;101928.69;5105828;28;20020;-75
2024/02/05 05:19:01;;;;;;;30.38;14.70;;;;;;;8.82;100.00;101931.25;5104698;28;20028;-75
2024/02/05 05:21:28;;;;;;;32.70;15.07;;;;;;;8.78;100.00;101940.81;5089004;28;20036;-75
2024/02/05 05:23:53;;;;;;;29.55;14.13;;;;;;;8.79;100.00;101928.53;5103807;28;20032;-75
2024/02/05 05:26:23;;;;;;;32.90;15.50;;;;;;;8.81;100.00;101933.00;5107098;28;20176;-77
2024/02/05 05:28:51;;;;;;;35.47;16.40;;;;;;;8.78;100.00;101942.53;5086542;28;20490;-77
2024/02/05 05:31:17;;;;;;;32.33;15.70;;;;;;;8.76;100.00;101939.00;5106610;28;20031;-77
2024/02/05 05:33:46;;;;;;;36.38;16.08;;;;;;;8.71;100.00;101938.84;5104574;28;20031;-77
2024/02/05 05:36:12;;;;;;;34.38;15.68;;;;;;;8.72;100.00;101936.25;5105968;28;20099;-77
2024/02/05 05:38:38;;;;;;;34.65;15.57;;;;;;;8.70;100.00;101924.75;5105110;28;20155;-77
2024/02/05 05:41:03;;;;;;;32.08;15.07;;;;;;;8.73;100.00;101922.22;5104534;28;20474;-77
2024/02/05 05:43:29;;;;;;;34.20;14.90;;;;;;;8.72;100.00;101925.72;5106647;28;20024;-77
2024/02/05 05:45:55;;;;;;;32.88;14.82;;;;;;;8.71;100.00;101930.94;5103414;28;20028;-77
2024/02/05 05:48:20;;;;;;;37.20;14.50;;;;;;;8.69;100.00;101923.00;5103310;28;20024;-77
2024/02/05 05:50:50;;;;;;;33.85;14.88;;;;;;;8.70;100.00;101926.50;5106229;28;20028;-77
2024/02/05 05:53:15;;;;;;;32.08;14.35;;;;;;;8.66;100.00;101922.88;5103826;28;20544;-77
2024/02/05 05:55:48;;;;;;;33.22;14.10;;;;;;;8.64;100.00;101927.22;5105335;28;20110;-75
2024/02/05 05:58:13;;;;;;;35.97;14.20;;;;;;;8.63;100.00;101935.97;5104324;28;20032;-75
2024/02/05 06:00:38;;;;;;;32.70;14.27;;;;;;;8.61;100.00;101929.78;5086747;28;20051;-75
2024/02/05 06:03:06;;;;;;;32.28;13.85;;;;;;;8.58;100.00;101926.13;5105574;28;20055;-75
2024/02/05 06:05:31;;;;;;;32.20;14.00;;;;;;;8.56;100.00;101926.09;5103743;28;20020;-75
2024/02/05 06:07:56;;;;;;;33.20;13.35;;;;;;;8.56;100.00;101928.72;5105813;28;20040;-75
2024/02/05 06:10:22;;;;;;;33.78;13.20;;;;;;;8.57;100.00;101929.66;5084708;28;20559;-75
2024/02/05 06:12:47;;;;;;;33.20;13.15;;;;;;;8.53;100.00;101923.38;5106142;28;20035;-75
2024/02/05 06:15:14;;;;;;;33.22;13.32;;;;;;;8.53;100.00;101923.38;5085730;28;20115;-78
2024/02/05 06:17:40;;;;;;;33.40;13.57;;;;;;;8.51;100.00;101922.44;5104896;28;20379;-76
2024/02/05 06:20:06;;;;;;;34.15;13.77;;;;;;;8.51;100.00;101919.81;5104955;28;20019;-76
2024/02/05 06:22:34;;;;;;;32.38;13.27;;;;;;;8.46;100.00;101922.31;5103210;28;20028;-76
2024/02/05 06:25:00;;;;;;;30.30;12.55;;;;;;;8.49;100.00;101911.84;5105435;28;20088;-76
2024/02/05 06:27:25;;;;;;;32.03;12.43;;;;;;;8.47;100.00;101920.56;5102805;28;20475;-76
2024/02/05 06:29:51;;;;;;;31.00;11.77;;;;;;;8.44;100.00;101926.63;5105966;28;20543;-76
2024/02/05 06:32:16;;;;;;;34.80;12.40;;;;;;;8.42;100.00;101932.66;5068561;28;20398;-76
2024/02/05 06:34:42;;;;;;;33.42;12.63;;;;;;;8.45;100.00;101927.53;5104853;28;20555;-76
2024/02/05 06:37:07;;;;;;;29.55;12.07;;;;;;;8.49;100.00;101917.13;5104018;28;20092;-76
2024/02/05 06:39:33;;;;;;;32.75;12.32;;;;;;;8.47;100.00;101916.16;5085189;28;20036;-76
2024/02/05 06:41:58;;;;;;;31.50;11.75;;;;;;;8.51;100.00;101930.34;5105594;28;20111;-76
2024/02/05 06:44:24;;;;;;;33.97;11.68;;;;;;;8.50;100.00;101937.38;5102243;28;20028;-75
2024/02/05 06:46:49;;;;;;;31.20;11.48;;;;;;;8.48;100.00;101933.78;5105609;28;20180;-75
2024/02/05 06:49:14;;;;;;;31.35;11.45;;;;;;;8.47;100.00;101921.44;5102764;28;20039;-75
2024/02/05 06:51:41;;;;;;;32.78;11.15;;;;;;;8.44;100.00;101941.50;5085877;28;20024;-75
2024/02/05 06:54:06;;;;;;;33.00;11.43;;;;;;;8.43;100.00;101950.25;5086014;28;20027;-75
2024/02/05 06:56:33;;;;;;;34.47;11.60;;;;;;;8.44;100.00;101944.16;5102786;28;20024;-75
2024/02/05 06:58:58;;;;;;;34.42;11.60;;;;;;;8.42;100.00;101936.19;5105313;28;20042;-75
2024/02/05 07:01:25;;;;;;;29.60;11.00;;;;;;;8.44;100.00;101928.34;5102139;28;20020;-75
2024/02/05 07:03:51;;;;;;;33.15;11.10;;;;;;;8.44;100.00;101928.34;5101792;28;20109;-76
2024/02/05 07:06:16;;;;;;;30.42;11.38;;;;;;;8.43;100.00;101931.81;5104397;28;20979;-75
2024/02/05 07:08:42;;;;;;;28.77;10.70;;;;;;;8.42;100.00;101930.00;5103059;28;20024;-76
2024/02/05 07:11:07;;;;;;;30.17;10.80;;;;;;;8.37;100.00;101930.78;5103259;28;20036;-75
2024/02/05 07:13:34;;;;;;;30.92;11.25;;;;;;;8.31;100.00;101929.69;5075883;28;20086;-75
2024/02/05 07:16:00;;;;;;;29.23;11.30;;;;;;;8.33;100.00;101922.72;5086880;28;20170;-75
2024/02/05 07:18:25;;;;;;;33.42;10.82;;;;;;;8.27;100.00;101938.34;5101680;28;20024;-75
2024/02/05 07:20:50;;;;;;;32.05;10.95;;;;;;;8.23;100.00;101928.56;5104942;28;20024;-76
2024/02/05 07:23:16;;;;;;;31.85;11.57;;;;;;;8.25;100.00;101935.66;5084076;28;20483;-76
2024/02/05 07:25:41;;;;;;;31.80;10.80;;;;;;;8.32;100.00;101929.75;5085393;28;20035;-76
2024/02/05 07:28:06;;;;;;;31.27;10.80;;;;;;;8.31;100.00;101927.94;5069888;28;20028;-76
2024/02/05 07:30:32;;;;;;;31.75;11.50;;;;;;;8.30;100.00;101928.81;5103513;28;20035;-76
2024/02/05 07:32:58;;;;;;;32.47;11.77;;;;;;;8.33;100.00;101943.81;5083471;28;20038;-76
2024/02/05 07:35:24;;;;;;;31.92;12.45;;;;;;;8.35;100.00;101943.00;5105007;28;20386;-76
2024/02/05 07:37:50;;;;;;;30.42;11.98;;;;;;;8.35;100.00;101945.66;5101535;28;20032;-76
2024/02/05 07:40:15;;;;;;;33.38;12.35;;;;;;;8.35;100.00;101944.75;5103717;28;20031;-76
2024/02/05 07:42:41;;;;;;;32.22;10.73;;;;;;;8.32;100.00;101945.56;5102768;28;20027;-76
2024/02/05 07:45:06;;;;;;;28.98;11.25;;;;;;;8.37;100.00;101946.59;5102550;28;20023;-76
2024/02/05 07:47:32;;;;;;;31.88;11.30;;;;;;;8.38;100.00;101944.84;5103784;28;20028;-76
2024/02/05 07:49:57;;;;;;;31.63;11.95;;;;;;;8.36;100.00;101947.44;5083075;28;20066;-76
2024/02/05 07:52:22;;;;;;;32.45;12.85;;;;;;;8.41;100.00;101944.94;5104543;28;20023;-76
2024/02/05 07:54:48;;;;;;;28.30;11.68;;;;;;;8.45;100.00;101936.31;5101384;28;20394;-76
2024/02/05 07:57:14;;;;;;;32.08;11.63;;;;;;;8.45;100.00;101956.53;5103520;28;20044;-76
2024/02/05 07:59:41;;;;;;;32.95;12.02;;;;;;;8.43;100.00;101956.44;5068053;28;20043;-76
2024/02/05 08:02:06;;;;;;;31.80;11.25;;;;;;;8.39;100.00;101951.91;5084130;28;20474;-75
2024/02/05 08:04:31;;;;;;;29.75;11.48;;;;;;;8.42;100.00;101954.66;5104349;28;20382;-76
2024/02/05 08:06:59;;;;;;;31.83;11.45;;;;;;;8.46;100.00;101943.41;5082512;28;20055;-76
2024/02/05 08:09:25;;;;;;;31.33;11.80;;;;;;;8.45;100.00;101983.75;5086462;28;20127;-76
2024/02/05 08:11:50;;;;;;;34.08;12.07;;;;;;;8.50;100.00;101965.44;5101127;28;20040;-76
2024/02/05 08:14:16;;;;;;;30.13;11.88;;;;;;;8.49;100.00;101947.84;5103734;28;20343;-76
2024/02/05 08:16:41;;;;;;;32.65;11.82;;;;;;;8.48;100.00;101953.97;5084266;28;20031;-76
2024/02/05 08:19:08;;;;;;;31.42;11.63;;;;;;;8.51;100.00;101949.69;5084237;28;20378;-76
2024/02/05 08:21:35;;;;;;;31.38;12.20;;;;;;;8.53;100.00;101949.72;5103348;28;20031;-76
2024/02/05 08:24:01;;;;;;;31.05;11.50;;;;;;;8.56;100.00;101949.81;5101486;28;20024;-75
2024/02/05 08:26:26;;;;;;;33.58;11.77;;;;;;;8.57;100.00;101945.47;5104154;28;20050;-76
2024/02/05 08:28:52;;;;;;;32.35;11.40;;;;;;;8.54;100.00;101962.94;5082885;28;20163;-76
2024/02/05 08:31:19;;;;;;;31.70;10.25;;;;;;;8.52;100.00;101959.38;5085644;28;20330;-76
2024/02/05 08:33:45;;;;;;;29.77;10.38;;;;;;;8.52;100.00;101925.13;5083970;28;20054;-76
2024/02/05 08:36:11;;;;;;;30.77;10.25;;;;;;;8.54;100.00;101952.41;5102504;28;20471;-75
2024/02/05 08:38:36;;;;;;;29.75;10.25;;;;;;;8.51;100.00;101967.25;5103050;28;20039;-75
2024/02/05 08:41:02;;;;;;;32.33;10.60;;;;;;;8.52;100.00;101947.97;5101218;28;20016;-76
2024/02/05 08:43:27;;;;;;;31.08;11.15;;;;;;;8.51;100.00;101967.25;5108411;28;20030;-75
2024/02/05 08:45:52;;;;;;;30.80;10.57;;;;;;;8.54;100.00;101957.69;5086559;28;20028;-75
2024/02/05 08:48:18;;;;;;;30.23;10.73;;;;;;;8.56;100.00;101960.34;5107382;28;20028;-75
2024/02/05 08:50:43;;;;;;;30.83;11.05;;;;;;;8.54;100.00;101952.41;5105614;28;20474;-75
2024/02/05 08:53:09;;;;;;;32.20;10.43;;;;;;;8.55;100.00;101956.84;5106220;28;20032;-75
2024/02/05 08:55:34;;;;;;;29.77;10.38;;;;;;;8.51;100.00;101969.88;5106879;28;20386;-75
2024/02/05 08:57:59;;;;;;;32.38;10.40;;;;;;;8.53;100.00;101961.19;5086449;28;20028;-75
2024/02/05 09:00:25;;;;;;;28.45;9.27;;;;;;;8.53;100.00;101950.63;5107996;28;20071;-75
2024/02/05 09:02:53;;;;;;;33.15;10.00;;;;;;;8.54;100.00;101941.88;5086150;28;20031;-75
2024/02/05 09:05:19;;;;;;;29.67;9.70;;;;;;;8.58;100.00;101957.75;5088847;28;20069;-76
2024/02/05 09:07:44;;;;;;;28.48;9.55;;;;;;;8.61;100.00;101953.50;5105265;28;20052;-75
2024/02/05 09:10:10;;;;;;;30.95;10.00;;;;;;;8.59;100.00;101947.31;5105794;28;20044;-75
2024/02/05 09:12:35;;;;;;;29.75;9.35;;;;;;;8.61;100.00;101948.22;5106465;28;20363;-75
2024/02/05 09:15:02;;;;;;;30.52;8.23;;;;;;;8.65;100.00;101938.66;5104414;28;20043;-75
2024/02/05 09:17:27;;;;;;;29.85;8.90;;;;;;;8.67;100.00;101948.41;5107630;28;20114;-75
2024/02/05 09:19:53;;;;;;;30.95;9.05;;;;;;;8.83;100.00;101949.75;5104044;28;20108;-75
2024/02/05 09:22:18;;;;;;;28.33;8.82;;;;;;;8.83;100.00;101939.19;5106685;28;20497;-75
2024/02/05 09:24:44;;;;;;;28.45;9.25;;;;;;;8.84;100.00;101940.09;5104917;28;20035;-75
2024/02/05 09:27:10;;;;;;;32.45;9.13;;;;;;;8.72;100.00;101954.72;5105463;28;20024;-76
2024/02/05 09:29:35;;;;;;;26.75;8.52;;;;;;;8.75;100.00;101950.38;5106003;28;20173;-75
2024/02/05 09:32:00;;;;;;;28.45;8.18;;;;;;;8.84;100.00;101940.09;5104030;28;20458;-75
2024/02/05 09:34:26;;;;;;;29.52;8.65;;;;;;;8.91;100.00;101928.84;5089317;28;20042;-75
2024/02/05 09:36:51;;;;;;;30.58;8.30;;;;;;;8.90;100.00;101935.88;5085598;28;20028;-76
2024/02/05 09:39:17;;;;;;;28.92;8.57;;;;;;;8.99;100.00;101952.84;5088002;28;20084;-76
2024/02/05 09:41:43;;;;;;;27.38;8.35;;;;;;;8.97;100.00;101939.59;5104998;28;20474;-74
2024/02/05 09:44:10;;;;;;;29.13;8.25;;;;;;;8.95;100.00;101965.03;5104786;28;20142;-76
2024/02/05 09:46:38;;;;;;;27.75;7.75;;;;;;;9.01;100.00;101949.41;5105959;28;20169;-75
2024/02/05 09:49:04;;;;;;;29.05;8.25;;;;;;;9.01;100.00;101949.41;5104146;28;20031;-76
2024/02/05 09:51:31;;;;;;;29.67;8.57;;;;;;;9.03;100.00;101942.41;5106523;28;20084;-76
2024/02/05 09:53:57;;;;;;;26.50;8.10;;;;;;;9.10;100.00;101924.09;5102671;28;20090;-76
2024/02/05 09:56:28;;;;;;;29.08;7.95;;;;;;;9.22;100.00;101940.28;5107089;28;20343;-76
2024/02/05 09:58:53;;;;;;;28.60;8.20;;;;;;;9.27;100.00;101941.28;5103057;28;20020;-76
2024/02/05 10:01:20;;;;;;;28.75;8.23;;;;;;;9.34;100.00;101943.25;5088102;28;20355;-76
2024/02/05 10:03:47;;;;;;;26.17;7.65;;;;;;;9.42;100.00;101925.88;5104287;28;20470;-76
2024/02/05 10:06:17;;;;;;;29.77;8.20;;;;;;;9.28;100.00;101935.19;5104943;28;20075;-76
2024/02/05 10:08:44;;;;;;;28.50;7.82;;;;;;;9.22;100.00;101914.78;5104465;28;20020;-76
2024/02/05 10:11:11;;;;;;;29.55;7.93;;;;;;;9.26;100.00;101910.47;5104665;28;20023;-76
2024/02/05 10:13:37;;;;;;;29.00;8.05;;;;;;;9.43;100.00;101947.88;5104999;28;20033;-76
2024/02/05 10:16:03;;;;;;;29.52;7.63;;;;;;;9.56;100.00;101920.06;5103373;28;20028;-76
2024/02/05 10:18:28;;;;;;;26.77;7.50;;;;;;;9.49;100.00;101933.94;5088205;28;20039;-75
2024/02/05 10:20:54;;;;;;;27.38;7.50;;;;;;;9.48;100.00;101914.59;5102703;28;20023;-75
2024/02/05 10:23:19;;;;;;;29.90;7.78;;;;;;;9.92;100.00;101906.88;5105607;28;20043;-75
2024/02/05 10:25:44;;;;;;;28.45;7.70;;;;;;;10.02;100.00;101909.72;5085795;28;20012;-75
2024/02/05 10:28:10;;;;;;;27.55;7.20;;;;;;;9.90;100.00;101911.25;5103942;28;20386;-75
2024/02/05 10:30:35;;;;;;;28.50;7.85;;;;;;;9.76;100.00;101916.16;5104957;28;20092;-75
2024/02/05 10:33:01;;;;;;;27.55;7.28;;;;;;;9.72;100.00;101908.16;5103085;28;20088;-74
2024/02/05 10:35:27;;;;;;;27.30;6.70;;;;;;;9.99;100.00;101912.28;5105921;28;20435;-75
2024/02/05 10:38:05;;;;;;;25.15;6.82;;;;;;;10.09;100.00;101919.59;5102390;28;20098;-75
2024/02/05 10:40:34;;;;;;;28.08;7.15;;;;;;;9.90;100.00;101913.88;5102806;28;20032;-75
2024/02/05 10:43:00;;;;;;;27.25;6.97;;;;;;;9.80;100.00;101900.41;5105419;28;20129;-75
2024/02/05 10:45:28;;;;;;;26.42;7.15;;;;;;;9.83;100.00;101888.19;5102267;28;20107;-75
2024/02/05 10:47:54;;;;;;;27.02;7.05;;;;;;;9.74;100.00;101912.63;5102451;28;20482;-74
2024/02/05 10:50:20;;;;;;;29.55;7.20;;;;;;;9.81;100.00;101902.19;5086670;28;20085;-75
2024/02/05 10:52:45;;;;;;;27.45;7.03;;;;;;;9.95;100.00;101916.63;5103454;28;20142;-75
2024/02/05 10:55:11;;;;;;;27.67;7.40;;;;;;;9.98;100.00;101903.50;5103922;28;20510;-75
2024/02/05 10:57:40;;;;;;;25.90;6.88;;;;;;;10.02;100.00;101907.09;5086151;28;20027;-75
2024/02/05 11:00:08;;;;;;;28.60;7.40;;;;;;;10.03;100.00;101928.28;5102849;28;20036;-75
2024/02/05 11:02:39;;;;;;;26.33;7.13;;;;;;;10.00;100.00;101903.53;5105141;28;20072;-75
2024/02/05 11:05:06;;;;;;;31.65;7.63;;;;;;;10.07;100.00;101890.47;5101930;28;20035;-75
2024/02/05 11:07:38;;;;;;;27.88;6.97;;;;;;;10.33;100.00;101886.66;5104784;28;20078;-76